Fayette, New York
Current Conditions -  °F | °C
As of 3:53 PM on Friday 31 Oct 2014 (Local Time) from KPEO Reporting Station
Overcast Overcast  
Wind Chill: 47°   Ceiling: 4500
Heat Index: 49°   Visibility: 10mi
Dew Point: 34°   Wind: 5mph
Humidity: 56%   Direction: 70°ENE
Pressure: 29.9"   Gusts: NA
Location:  42.81°N, 76.81°W
Report Text: KPEO 311953Z AUTO 07004KT 10SM BKN045 OVC055 09/01 A2990 RMK AO2 SLP129 T00940011
Loading
Personal Weather Stations






























Interactive Weather Map
Tropical Storm Tracking
New forecast layout! Learn more

10-Day Weather Forecast

Advertisements
Track Severe Weather on mobile